sensor_id;sensor_type;location;lat;lon;timestamp;P1;durP1;ratioP1;P2;durP2;ratioP2
45694;SDS011;31408;45.468;9.124;2022-07-25T00:00:46;9.85;;;5.10;;
45694;SDS011;31408;45.468;9.124;2022-07-25T00:03:11;12.88;;;6.18;;
45694;SDS011;31408;45.468;9.124;2022-07-25T00:05:37;10.35;;;6.53;;
45694;SDS011;31408;45.468;9.124;2022-07-25T00:08:02;23.80;;;10.88;;
45694;SDS011;31408;45.468;9.124;2022-07-25T00:10:28;16.02;;;8.02;;
45694;SDS011;31408;45.468;9.124;2022-07-25T00:12:53;17.08;;;6.95;;
45694;SDS011;31408;45.468;9.124;2022-07-25T00:15:19;28.95;;;11.18;;
45694;SDS011;31408;45.468;9.124;2022-07-25T00:17:44;14.82;;;7.15;;
45694;SDS011;31408;45.468;9.124;2022-07-25T00:20:10;9.23;;;5.68;;
45694;SDS011;31408;45.468;9.124;2022-07-25T00:22:35;15.07;;;6.97;;
45694;SDS011;31408;45.468;9.124;2022-07-25T00:25:01;17.02;;;6.05;;
45694;SDS011;31408;45.468;9.124;2022-07-25T00:27:26;11.85;;;5.95;;
45694;SDS011;31408;45.468;9.124;2022-07-25T00:29:52;16.67;;;7.47;;
45694;SDS011;31408;45.468;9.124;2022-07-25T00:32:17;9.90;;;6.00;;
45694;SDS011;31408;45.468;9.124;2022-07-25T00:34:43;12.35;;;6.35;;
45694;SDS011;31408;45.468;9.124;2022-07-25T00:37:08;9.20;;;5.82;;
45694;SDS011;31408;45.468;9.124;2022-07-25T00:39:34;10.13;;;5.78;;
45694;SDS011;31408;45.468;9.124;2022-07-25T00:41:59;15.65;;;7.03;;
45694;SDS011;31408;45.468;9.124;2022-07-25T00:44:26;8.23;;;5.63;;
45694;SDS011;31408;45.468;9.124;2022-07-25T00:46:56;15.13;;;6.18;;
45694;SDS011;31408;45.468;9.124;2022-07-25T00:49:23;11.70;;;6.45;;
45694;SDS011;31408;45.468;9.124;2022-07-25T00:51:49;12.85;;;5.90;;
45694;SDS011;31408;45.468;9.124;2022-07-25T00:54:15;15.27;;;6.28;;
45694;SDS011;31408;45.468;9.124;2022-07-25T00:56:42;9.10;;;5.47;;
45694;SDS011;31408;45.468;9.124;2022-07-25T00:59:08;12.00;;;5.40;;
45694;SDS011;31408;45.468;9.124;2022-07-25T01:01:34;12.32;;;6.25;;
45694;SDS011;31408;45.468;9.124;2022-07-25T01:04:00;15.63;;;7.35;;
45694;SDS011;31408;45.468;9.124;2022-07-25T01:06:26;19.88;;;9.00;;
45694;SDS011;31408;45.468;9.124;2022-07-25T01:08:52;11.60;;;6.38;;
45694;SDS011;31408;45.468;9.124;2022-07-25T01:11:18;11.75;;;6.38;;
45694;SDS011;31408;45.468;9.124;2022-07-25T01:13:43;19.58;;;9.20;;
45694;SDS011;31408;45.468;9.124;2022-07-25T01:16:09;24.30;;;14.10;;
45694;SDS011;31408;45.468;9.124;2022-07-25T01:18:34;16.42;;;8.38;;
45694;SDS011;31408;45.468;9.124;2022-07-25T01:21:01;18.50;;;8.88;;
45694;SDS011;31408;45.468;9.124;2022-07-25T01:23:26;11.30;;;6.07;;
45694;SDS011;31408;45.468;9.124;2022-07-25T01:25:52;12.18;;;6.70;;
45694;SDS011;31408;45.468;9.124;2022-07-25T01:28:18;12.35;;;6.45;;
45694;SDS011;31408;45.468;9.124;2022-07-25T01:30:43;14.25;;;5.97;;
45694;SDS011;31408;45.468;9.124;2022-07-25T01:33:09;13.35;;;6.45;;
45694;SDS011;31408;45.468;9.124;2022-07-25T01:35:38;14.95;;;6.25;;
45694;SDS011;31408;45.468;9.124;2022-07-25T01:38:04;12.18;;;6.50;;
45694;SDS011;31408;45.468;9.124;2022-07-25T01:40:29;15.57;;;6.68;;
45694;SDS011;31408;45.468;9.124;2022-07-25T01:42:55;18.25;;;6.70;;
45694;SDS011;31408;45.468;9.124;2022-07-25T01:45:20;9.95;;;5.93;;
45694;SDS011;31408;45.468;9.124;2022-07-25T01:47:45;16.25;;;8.18;;
45694;SDS011;31408;45.468;9.124;2022-07-25T01:50:11;16.52;;;8.20;;
45694;SDS011;31408;45.468;9.124;2022-07-25T01:52:36;13.93;;;7.07;;
45694;SDS011;31408;45.468;9.124;2022-07-25T01:55:03;13.60;;;6.72;;
45694;SDS011;31408;45.468;9.124;2022-07-25T01:57:29;13.48;;;7.07;;
45694;SDS011;31408;45.468;9.124;2022-07-25T01:59:54;13.20;;;6.43;;
45694;SDS011;31408;45.468;9.124;2022-07-25T02:02:20;12.82;;;6.97;;
45694;SDS011;31408;45.468;9.124;2022-07-25T02:04:45;12.05;;;5.72;;
45694;SDS011;31408;45.468;9.124;2022-07-25T02:07:11;12.82;;;5.93;;
45694;SDS011;31408;45.468;9.124;2022-07-25T02:09:36;11.65;;;6.35;;
45694;SDS011;31408;45.468;9.124;2022-07-25T02:12:02;11.13;;;5.82;;
45694;SDS011;31408;45.468;9.124;2022-07-25T02:14:27;11.45;;;5.60;;
45694;SDS011;31408;45.468;9.124;2022-07-25T02:16:53;15.00;;;5.75;;
45694;SDS011;31408;45.468;9.124;2022-07-25T02:19:18;17.65;;;8.77;;
45694;SDS011;31408;45.468;9.124;2022-07-25T02:21:44;13.60;;;6.28;;
45694;SDS011;31408;45.468;9.124;2022-07-25T02:24:09;12.10;;;6.28;;
45694;SDS011;31408;45.468;9.124;2022-07-25T02:26:35;21.27;;;11.63;;
45694;SDS011;31408;45.468;9.124;2022-07-25T02:29:00;15.25;;;7.97;;
45694;SDS011;31408;45.468;9.124;2022-07-25T02:31:25;12.35;;;5.88;;
45694;SDS011;31408;45.468;9.124;2022-07-25T02:33:51;15.93;;;6.05;;
45694;SDS011;31408;45.468;9.124;2022-07-25T02:36:16;10.85;;;6.10;;
45694;SDS011;31408;45.468;9.124;2022-07-25T02:38:42;15.48;;;6.13;;
45694;SDS011;31408;45.468;9.124;2022-07-25T02:41:07;9.60;;;5.25;;
45694;SDS011;31408;45.468;9.124;2022-07-25T02:43:33;13.20;;;6.47;;
45694;SDS011;31408;45.468;9.124;2022-07-25T02:45:58;16.15;;;9.32;;
45694;SDS011;31408;45.468;9.124;2022-07-25T02:48:24;29.67;;;16.98;;
45694;SDS011;31408;45.468;9.124;2022-07-25T02:50:49;21.88;;;10.15;;
45694;SDS011;31408;45.468;9.124;2022-07-25T02:53:15;24.60;;;11.50;;
45694;SDS011;31408;45.468;9.124;2022-07-25T02:55:40;22.50;;;10.52;;
45694;SDS011;31408;45.468;9.124;2022-07-25T02:58:05;21.80;;;9.38;;
45694;SDS011;31408;45.468;9.124;2022-07-25T03:00:31;13.90;;;7.68;;
45694;SDS011;31408;45.468;9.124;2022-07-25T03:02:57;12.35;;;6.25;;
45694;SDS011;31408;45.468;9.124;2022-07-25T03:05:22;12.77;;;6.00;;
45694;SDS011;31408;45.468;9.124;2022-07-25T03:07:47;11.30;;;6.70;;
45694;SDS011;31408;45.468;9.124;2022-07-25T03:10:13;10.05;;;6.78;;
45694;SDS011;31408;45.468;9.124;2022-07-25T03:12:39;11.32;;;6.72;;
45694;SDS011;31408;45.468;9.124;2022-07-25T03:15:05;12.55;;;7.05;;
45694;SDS011;31408;45.468;9.124;2022-07-25T03:17:31;17.15;;;5.75;;
45694;SDS011;31408;45.468;9.124;2022-07-25T03:19:57;13.40;;;6.80;;
45694;SDS011;31408;45.468;9.124;2022-07-25T03:22:23;12.65;;;6.35;;
45694;SDS011;31408;45.468;9.124;2022-07-25T03:24:49;12.25;;;5.30;;
45694;SDS011;31408;45.468;9.124;2022-07-25T03:27:14;12.90;;;6.68;;
45694;SDS011;31408;45.468;9.124;2022-07-25T03:29:40;12.00;;;6.28;;
45694;SDS011;31408;45.468;9.124;2022-07-25T03:32:06;16.65;;;6.45;;
45694;SDS011;31408;45.468;9.124;2022-07-25T03:34:32;13.18;;;6.85;;
45694;SDS011;31408;45.468;9.124;2022-07-25T03:36:58;8.93;;;5.75;;
45694;SDS011;31408;45.468;9.124;2022-07-25T03:39:24;11.93;;;6.60;;
45694;SDS011;31408;45.468;9.124;2022-07-25T03:41:50;7.15;;;5.32;;
45694;SDS011;31408;45.468;9.124;2022-07-25T03:44:17;10.70;;;6.60;;
45694;SDS011;31408;45.468;9.124;2022-07-25T03:46:43;10.90;;;6.85;;
45694;SDS011;31408;45.468;9.124;2022-07-25T03:49:08;14.02;;;6.93;;
45694;SDS011;31408;45.468;9.124;2022-07-25T03:51:34;20.88;;;10.95;;
45694;SDS011;31408;45.468;9.124;2022-07-25T03:53:59;15.82;;;8.38;;
45694;SDS011;31408;45.468;9.124;2022-07-25T03:56:28;12.15;;;7.03;;
45694;SDS011;31408;45.468;9.124;2022-07-25T04:01:26;14.15;;;7.50;;
45694;SDS011;31408;45.468;9.124;2022-07-25T04:03:51;11.60;;;5.85;;
45694;SDS011;31408;45.468;9.124;2022-07-25T04:06:17;11.63;;;5.90;;
45694;SDS011;31408;45.468;9.124;2022-07-25T04:08:43;11.48;;;5.55;;
45694;SDS011;31408;45.468;9.124;2022-07-25T04:11:08;9.35;;;5.25;;
45694;SDS011;31408;45.468;9.124;2022-07-25T04:13:34;10.05;;;5.50;;
45694;SDS011;31408;45.468;9.124;2022-07-25T04:15:59;7.15;;;4.95;;
45694;SDS011;31408;45.468;9.124;2022-07-25T04:18:24;10.85;;;5.70;;
45694;SDS011;31408;45.468;9.124;2022-07-25T04:20:50;7.05;;;4.88;;
45694;SDS011;31408;45.468;9.124;2022-07-25T04:23:15;14.82;;;5.90;;
45694;SDS011;31408;45.468;9.124;2022-07-25T04:25:41;10.02;;;4.88;;
45694;SDS011;31408;45.468;9.124;2022-07-25T04:28:06;10.07;;;5.35;;
45694;SDS011;31408;45.468;9.124;2022-07-25T04:30:32;10.15;;;5.00;;
45694;SDS011;31408;45.468;9.124;2022-07-25T04:32:57;11.95;;;5.38;;
45694;SDS011;31408;45.468;9.124;2022-07-25T04:35:24;11.52;;;5.63;;
45694;SDS011;31408;45.468;9.124;2022-07-25T04:37:49;15.27;;;5.93;;
45694;SDS011;31408;45.468;9.124;2022-07-25T04:40:15;11.30;;;5.03;;
45694;SDS011;31408;45.468;9.124;2022-07-25T04:42:40;10.25;;;5.07;;
45694;SDS011;31408;45.468;9.124;2022-07-25T04:45:06;9.75;;;5.75;;
45694;SDS011;31408;45.468;9.124;2022-07-25T04:47:32;11.07;;;5.90;;
45694;SDS011;31408;45.468;9.124;2022-07-25T04:49:58;11.27;;;6.20;;
45694;SDS011;31408;45.468;9.124;2022-07-25T04:52:23;8.30;;;5.22;;
45694;SDS011;31408;45.468;9.124;2022-07-25T04:54:49;10.98;;;5.97;;
45694;SDS011;31408;45.468;9.124;2022-07-25T04:57:14;17.58;;;7.80;;
45694;SDS011;31408;45.468;9.124;2022-07-25T04:59:40;8.75;;;5.70;;
45694;SDS011;31408;45.468;9.124;2022-07-25T05:02:05;10.43;;;5.30;;
45694;SDS011;31408;45.468;9.124;2022-07-25T05:04:30;11.00;;;6.88;;
45694;SDS011;31408;45.468;9.124;2022-07-25T05:06:58;11.90;;;5.60;;
45694;SDS011;31408;45.468;9.124;2022-07-25T05:09:24;11.88;;;5.95;;
45694;SDS011;31408;45.468;9.124;2022-07-25T05:11:49;14.88;;;6.22;;
45694;SDS011;31408;45.468;9.124;2022-07-25T05:14:15;10.77;;;5.32;;
45694;SDS011;31408;45.468;9.124;2022-07-25T05:16:40;10.07;;;5.72;;
45694;SDS011;31408;45.468;9.124;2022-07-25T05:19:06;10.88;;;5.60;;
45694;SDS011;31408;45.468;9.124;2022-07-25T05:21:32;7.75;;;5.13;;
45694;SDS011;31408;45.468;9.124;2022-07-25T05:23:58;14.63;;;5.43;;
45694;SDS011;31408;45.468;9.124;2022-07-25T05:26:23;9.57;;;5.70;;
45694;SDS011;31408;45.468;9.124;2022-07-25T05:28:48;12.48;;;5.97;;
45694;SDS011;31408;45.468;9.124;2022-07-25T05:31:14;10.20;;;6.03;;
45694;SDS011;31408;45.468;9.124;2022-07-25T05:33:39;11.52;;;5.82;;
45694;SDS011;31408;45.468;9.124;2022-07-25T05:36:05;9.85;;;5.00;;
45694;SDS011;31408;45.468;9.124;2022-07-25T05:38:32;9.70;;;5.45;;
45694;SDS011;31408;45.468;9.124;2022-07-25T05:40:58;12.80;;;5.88;;
45694;SDS011;31408;45.468;9.124;2022-07-25T05:43:23;10.80;;;6.18;;
45694;SDS011;31408;45.468;9.124;2022-07-25T05:45:48;10.20;;;5.82;;
45694;SDS011;31408;45.468;9.124;2022-07-25T05:48:14;9.02;;;5.22;;
45694;SDS011;31408;45.468;9.124;2022-07-25T05:50:39;11.63;;;5.22;;
45694;SDS011;31408;45.468;9.124;2022-07-25T05:53:05;10.05;;;5.20;;
45694;SDS011;31408;45.468;9.124;2022-07-25T05:55:30;14.75;;;6.20;;
45694;SDS011;31408;45.468;9.124;2022-07-25T05:57:56;13.32;;;6.85;;
45694;SDS011;31408;45.468;9.124;2022-07-25T06:00:22;12.43;;;6.63;;
45694;SDS011;31408;45.468;9.124;2022-07-25T06:02:48;10.07;;;6.28;;
45694;SDS011;31408;45.468;9.124;2022-07-25T06:05:13;11.85;;;5.65;;
45694;SDS011;31408;45.468;9.124;2022-07-25T06:07:39;14.18;;;6.70;;
45694;SDS011;31408;45.468;9.124;2022-07-25T06:10:05;16.27;;;5.82;;
45694;SDS011;31408;45.468;9.124;2022-07-25T06:12:31;12.00;;;6.03;;
45694;SDS011;31408;45.468;9.124;2022-07-25T06:14:58;9.95;;;5.38;;
45694;SDS011;31408;45.468;9.124;2022-07-25T06:17:24;13.80;;;6.72;;
45694;SDS011;31408;45.468;9.124;2022-07-25T06:19:49;10.15;;;5.05;;
45694;SDS011;31408;45.468;9.124;2022-07-25T06:22:15;9.70;;;5.15;;
45694;SDS011;31408;45.468;9.124;2022-07-25T06:24:40;11.25;;;5.05;;
45694;SDS011;31408;45.468;9.124;2022-07-25T06:27:06;12.30;;;5.30;;
45694;SDS011;31408;45.468;9.124;2022-07-25T06:29:32;11.40;;;5.70;;
45694;SDS011;31408;45.468;9.124;2022-07-25T06:31:57;8.18;;;4.78;;
45694;SDS011;31408;45.468;9.124;2022-07-25T06:34:23;10.23;;;4.53;;
45694;SDS011;31408;45.468;9.124;2022-07-25T06:36:48;9.20;;;4.72;;
45694;SDS011;31408;45.468;9.124;2022-07-25T06:39:14;11.98;;;5.32;;
45694;SDS011;31408;45.468;9.124;2022-07-25T06:41:39;7.30;;;4.28;;
45694;SDS011;31408;45.468;9.124;2022-07-25T06:44:04;7.57;;;4.88;;
45694;SDS011;31408;45.468;9.124;2022-07-25T06:46:30;11.25;;;4.68;;
45694;SDS011;31408;45.468;9.124;2022-07-25T06:48:57;11.70;;;5.63;;
45694;SDS011;31408;45.468;9.124;2022-07-25T06:51:22;10.10;;;5.30;;
45694;SDS011;31408;45.468;9.124;2022-07-25T06:53:48;11.65;;;4.88;;
45694;SDS011;31408;45.468;9.124;2022-07-25T06:56:14;11.77;;;4.95;;
45694;SDS011;31408;45.468;9.124;2022-07-25T06:58:39;13.13;;;5.47;;
45694;SDS011;31408;45.468;9.124;2022-07-25T07:01:05;13.60;;;5.63;;
45694;SDS011;31408;45.468;9.124;2022-07-25T07:03:31;10.50;;;5.18;;
45694;SDS011;31408;45.468;9.124;2022-07-25T07:05:58;10.32;;;6.68;;
45694;SDS011;31408;45.468;9.124;2022-07-25T07:08:25;7.40;;;4.60;;
45694;SDS011;31408;45.468;9.124;2022-07-25T07:10:50;11.60;;;4.47;;
45694;SDS011;31408;45.468;9.124;2022-07-25T07:13:16;9.05;;;4.25;;
45694;SDS011;31408;45.468;9.124;2022-07-25T07:15:44;13.18;;;4.38;;
45694;SDS011;31408;45.468;9.124;2022-07-25T07:18:11;8.07;;;4.88;;
45694;SDS011;31408;45.468;9.124;2022-07-25T07:20:36;9.85;;;4.57;;
45694;SDS011;31408;45.468;9.124;2022-07-25T07:23:02;9.07;;;4.50;;
45694;SDS011;31408;45.468;9.124;2022-07-25T07:25:27;10.55;;;4.40;;
45694;SDS011;31408;45.468;9.124;2022-07-25T07:27:54;9.63;;;4.30;;
45694;SDS011;31408;45.468;9.124;2022-07-25T07:30:19;9.52;;;4.70;;
45694;SDS011;31408;45.468;9.124;2022-07-25T07:32:45;11.10;;;5.03;;
45694;SDS011;31408;45.468;9.124;2022-07-25T07:35:11;11.88;;;4.68;;
45694;SDS011;31408;45.468;9.124;2022-07-25T07:37:36;13.38;;;4.40;;
45694;SDS011;31408;45.468;9.124;2022-07-25T07:40:02;18.92;;;4.88;;
45694;SDS011;31408;45.468;9.124;2022-07-25T07:42:38;11.07;;;4.72;;
45694;SDS011;31408;45.468;9.124;2022-07-25T07:45:09;8.75;;;4.90;;
45694;SDS011;31408;45.468;9.124;2022-07-25T07:47:38;11.38;;;4.95;;
45694;SDS011;31408;45.468;9.124;2022-07-25T07:50:04;10.98;;;4.50;;
45694;SDS011;31408;45.468;9.124;2022-07-25T07:52:30;10.63;;;5.07;;
45694;SDS011;31408;45.468;9.124;2022-07-25T07:54:55;9.80;;;4.55;;
45694;SDS011;31408;45.468;9.124;2022-07-25T07:57:40;14.95;;;4.80;;
45694;SDS011;31408;45.468;9.124;2022-07-25T08:00:05;9.30;;;4.90;;
45694;SDS011;31408;45.468;9.124;2022-07-25T08:02:41;7.60;;;4.78;;
45694;SDS011;31408;45.468;9.124;2022-07-25T08:07:35;10.10;;;4.97;;
45694;SDS011;31408;45.468;9.124;2022-07-25T08:10:00;9.07;;;4.88;;
45694;SDS011;31408;45.468;9.124;2022-07-25T08:12:26;15.80;;;4.70;;
45694;SDS011;31408;45.468;9.124;2022-07-25T08:14:51;8.95;;;4.82;;
45694;SDS011;31408;45.468;9.124;2022-07-25T08:17:17;8.25;;;4.80;;
45694;SDS011;31408;45.468;9.124;2022-07-25T08:19:43;6.20;;;4.13;;
45694;SDS011;31408;45.468;9.124;2022-07-25T08:22:08;9.93;;;3.95;;
45694;SDS011;31408;45.468;9.124;2022-07-25T08:24:33;12.02;;;5.82;;
45694;SDS011;31408;45.468;9.124;2022-07-25T08:26:59;8.23;;;4.68;;
45694;SDS011;31408;45.468;9.124;2022-07-25T08:29:25;12.05;;;5.82;;
45694;SDS011;31408;45.468;9.124;2022-07-25T08:31:50;12.68;;;5.32;;
45694;SDS011;31408;45.468;9.124;2022-07-25T08:34:16;6.43;;;4.43;;
45694;SDS011;31408;45.468;9.124;2022-07-25T08:36:41;12.68;;;4.20;;
45694;SDS011;31408;45.468;9.124;2022-07-25T08:39:06;9.90;;;4.30;;
45694;SDS011;31408;45.468;9.124;2022-07-25T08:41:32;12.15;;;5.68;;
45694;SDS011;31408;45.468;9.124;2022-07-25T08:43:58;11.07;;;5.50;;
45694;SDS011;31408;45.468;9.124;2022-07-25T08:46:24;19.10;;;9.80;;
45694;SDS011;31408;45.468;9.124;2022-07-25T08:48:49;11.27;;;4.82;;
45694;SDS011;31408;45.468;9.124;2022-07-25T08:51:16;8.98;;;4.57;;
45694;SDS011;31408;45.468;9.124;2022-07-25T08:53:42;9.57;;;4.35;;
45694;SDS011;31408;45.468;9.124;2022-07-25T08:56:07;11.65;;;4.30;;
45694;SDS011;31408;45.468;9.124;2022-07-25T08:58:33;7.00;;;4.07;;
45694;SDS011;31408;45.468;9.124;2022-07-25T09:00:58;7.68;;;4.10;;
45694;SDS011;31408;45.468;9.124;2022-07-25T09:03:25;8.07;;;4.18;;
45694;SDS011;31408;45.468;9.124;2022-07-25T09:05:50;9.02;;;4.50;;
45694;SDS011;31408;45.468;9.124;2022-07-25T09:08:16;7.50;;;4.28;;
45694;SDS011;31408;45.468;9.124;2022-07-25T09:10:49;7.57;;;3.97;;
45694;SDS011;31408;45.468;9.124;2022-07-25T09:13:15;6.15;;;3.85;;
45694;SDS011;31408;45.468;9.124;2022-07-25T09:15:46;5.15;;;3.67;;
45694;SDS011;31408;45.468;9.124;2022-07-25T09:18:14;9.00;;;4.78;;
45694;SDS011;31408;45.468;9.124;2022-07-25T09:20:48;6.43;;;4.28;;
45694;SDS011;31408;45.468;9.124;2022-07-25T09:23:26;11.40;;;3.90;;
45694;SDS011;31408;45.468;9.124;2022-07-25T09:26:06;12.52;;;5.25;;
45694;SDS011;31408;45.468;9.124;2022-07-25T09:31:10;9.18;;;5.68;;
45694;SDS011;31408;45.468;9.124;2022-07-25T09:33:52;13.82;;;4.60;;
45694;SDS011;31408;45.468;9.124;2022-07-25T09:36:20;10.55;;;4.82;;
45694;SDS011;31408;45.468;9.124;2022-07-25T09:38:53;7.57;;;4.65;;
45694;SDS011;31408;45.468;9.124;2022-07-25T09:41:33;12.95;;;5.55;;
45694;SDS011;31408;45.468;9.124;2022-07-25T09:44:03;6.15;;;4.47;;
45694;SDS011;31408;45.468;9.124;2022-07-25T09:46:39;8.27;;;4.72;;
45694;SDS011;31408;45.468;9.124;2022-07-25T09:49:04;7.47;;;3.65;;
45694;SDS011;31408;45.468;9.124;2022-07-25T09:51:30;7.70;;;4.57;;
45694;SDS011;31408;45.468;9.124;2022-07-25T09:53:56;12.52;;;4.70;;
45694;SDS011;31408;45.468;9.124;2022-07-25T09:56:21;8.95;;;4.20;;
45694;SDS011;31408;45.468;9.124;2022-07-25T09:58:47;7.43;;;3.78;;
45694;SDS011;31408;45.468;9.124;2022-07-25T10:01:13;7.63;;;4.55;;
45694;SDS011;31408;45.468;9.124;2022-07-25T10:06:20;10.57;;;4.53;;
45694;SDS011;31408;45.468;9.124;2022-07-25T10:08:49;8.90;;;4.20;;
45694;SDS011;31408;45.468;9.124;2022-07-25T10:11:18;6.85;;;3.88;;
45694;SDS011;31408;45.468;9.124;2022-07-25T10:13:51;8.35;;;3.75;;
45694;SDS011;31408;45.468;9.124;2022-07-25T10:16:21;9.02;;;4.28;;
45694;SDS011;31408;45.468;9.124;2022-07-25T10:18:52;5.87;;;3.67;;
45694;SDS011;31408;45.468;9.124;2022-07-25T10:21:19;10.38;;;3.97;;
45694;SDS011;31408;45.468;9.124;2022-07-25T10:23:55;7.28;;;4.15;;
45694;SDS011;31408;45.468;9.124;2022-07-25T10:26:22;11.00;;;5.03;;
45694;SDS011;31408;45.468;9.124;2022-07-25T10:28:49;5.97;;;4.22;;
45694;SDS011;31408;45.468;9.124;2022-07-25T10:31:20;7.68;;;4.53;;
45694;SDS011;31408;45.468;9.124;2022-07-25T10:36:19;8.77;;;4.00;;
45694;SDS011;31408;45.468;9.124;2022-07-25T10:38:45;5.78;;;3.80;;
45694;SDS011;31408;45.468;9.124;2022-07-25T10:41:11;8.88;;;4.18;;
45694;SDS011;31408;45.468;9.124;2022-07-25T10:43:38;11.57;;;4.35;;
45694;SDS011;31408;45.468;9.124;2022-07-25T10:46:11;6.53;;;3.97;;
45694;SDS011;31408;45.468;9.124;2022-07-25T10:48:38;8.98;;;4.45;;
45694;SDS011;31408;45.468;9.124;2022-07-25T10:51:11;9.07;;;4.57;;
45694;SDS011;31408;45.468;9.124;2022-07-25T10:53:44;10.57;;;4.05;;
45694;SDS011;31408;45.468;9.124;2022-07-25T10:56:16;8.60;;;4.32;;
45694;SDS011;31408;45.468;9.124;2022-07-25T10:58:48;21.30;;;4.82;;
45694;SDS011;31408;45.468;9.124;2022-07-25T11:01:19;6.68;;;3.85;;
45694;SDS011;31408;45.468;9.124;2022-07-25T11:03:48;6.93;;;4.18;;
45694;SDS011;31408;45.468;9.124;2022-07-25T11:06:15;8.57;;;4.03;;
45694;SDS011;31408;45.468;9.124;2022-07-25T11:08:41;9.15;;;4.93;;
45694;SDS011;31408;45.468;9.124;2022-07-25T11:11:07;9.48;;;3.75;;
45694;SDS011;31408;45.468;9.124;2022-07-25T11:13:37;10.10;;;4.55;;
45694;SDS011;31408;45.468;9.124;2022-07-25T11:16:04;6.40;;;3.72;;
45694;SDS011;31408;45.468;9.124;2022-07-25T11:18:34;10.77;;;4.68;;
45694;SDS011;31408;45.468;9.124;2022-07-25T11:21:04;4.03;;;3.60;;
45694;SDS011;31408;45.468;9.124;2022-07-25T11:23:30;9.63;;;3.88;;
45694;SDS011;31408;45.468;9.124;2022-07-25T11:26:03;9.82;;;5.05;;
45694;SDS011;31408;45.468;9.124;2022-07-25T11:28:36;8.70;;;4.00;;
45694;SDS011;31408;45.468;9.124;2022-07-25T11:31:05;8.90;;;4.07;;
45694;SDS011;31408;45.468;9.124;2022-07-25T11:33:31;7.95;;;4.30;;
45694;SDS011;31408;45.468;9.124;2022-07-25T11:35:57;11.88;;;5.35;;
45694;SDS011;31408;45.468;9.124;2022-07-25T11:38:23;8.05;;;4.15;;
45694;SDS011;31408;45.468;9.124;2022-07-25T11:40:49;9.95;;;5.25;;
45694;SDS011;31408;45.468;9.124;2022-07-25T11:43:19;10.35;;;4.72;;
45694;SDS011;31408;45.468;9.124;2022-07-25T11:45:54;11.02;;;4.60;;
45694;SDS011;31408;45.468;9.124;2022-07-25T11:48:20;7.47;;;4.93;;
45694;SDS011;31408;45.468;9.124;2022-07-25T11:50:55;8.13;;;3.92;;
45694;SDS011;31408;45.468;9.124;2022-07-25T11:53:20;9.68;;;5.32;;
45694;SDS011;31408;45.468;9.124;2022-07-25T11:55:46;9.02;;;5.63;;
45694;SDS011;31408;45.468;9.124;2022-07-25T11:58:12;8.07;;;5.22;;
45694;SDS011;31408;45.468;9.124;2022-07-25T12:00:39;11.02;;;4.72;;
45694;SDS011;31408;45.468;9.124;2022-07-25T12:03:07;9.75;;;5.20;;
45694;SDS011;31408;45.468;9.124;2022-07-25T12:05:33;8.18;;;5.15;;
45694;SDS011;31408;45.468;9.124;2022-07-25T12:08:07;13.93;;;5.72;;
45694;SDS011;31408;45.468;9.124;2022-07-25T12:10:35;11.45;;;5.53;;
45694;SDS011;31408;45.468;9.124;2022-07-25T12:13:01;15.70;;;5.05;;
45694;SDS011;31408;45.468;9.124;2022-07-25T12:15:29;7.00;;;4.80;;
45694;SDS011;31408;45.468;9.124;2022-07-25T12:17:56;15.75;;;5.65;;
45694;SDS011;31408;45.468;9.124;2022-07-25T12:20:23;7.38;;;4.90;;
45694;SDS011;31408;45.468;9.124;2022-07-25T12:22:54;9.30;;;4.97;;
45694;SDS011;31408;45.468;9.124;2022-07-25T12:25:20;6.53;;;4.78;;
45694;SDS011;31408;45.468;9.124;2022-07-25T12:27:46;10.23;;;5.20;;
45694;SDS011;31408;45.468;9.124;2022-07-25T12:30:12;8.68;;;4.45;;
45694;SDS011;31408;45.468;9.124;2022-07-25T12:32:38;9.23;;;4.53;;
45694;SDS011;31408;45.468;9.124;2022-07-25T12:35:04;12.32;;;5.07;;
45694;SDS011;31408;45.468;9.124;2022-07-25T12:37:31;13.57;;;5.43;;
45694;SDS011;31408;45.468;9.124;2022-07-25T12:39:56;8.18;;;4.45;;
45694;SDS011;31408;45.468;9.124;2022-07-25T12:42:22;12.77;;;4.90;;
45694;SDS011;31408;45.468;9.124;2022-07-25T12:44:48;6.90;;;4.53;;
45694;SDS011;31408;45.468;9.124;2022-07-25T12:47:13;7.75;;;4.40;;
45694;SDS011;31408;45.468;9.124;2022-07-25T12:49:38;10.10;;;4.78;;
45694;SDS011;31408;45.468;9.124;2022-07-25T12:52:04;14.23;;;5.10;;
45694;SDS011;31408;45.468;9.124;2022-07-25T12:54:29;11.02;;;4.90;;
45694;SDS011;31408;45.468;9.124;2022-07-25T12:56:55;10.57;;;4.65;;
45694;SDS011;31408;45.468;9.124;2022-07-25T12:59:20;8.07;;;4.65;;
45694;SDS011;31408;45.468;9.124;2022-07-25T13:01:46;11.68;;;4.90;;
45694;SDS011;31408;45.468;9.124;2022-07-25T13:04:11;7.43;;;4.68;;
45694;SDS011;31408;45.468;9.124;2022-07-25T13:06:37;11.07;;;5.32;;
45694;SDS011;31408;45.468;9.124;2022-07-25T13:09:02;7.85;;;4.78;;
45694;SDS011;31408;45.468;9.124;2022-07-25T13:11:28;9.38;;;4.80;;
45694;SDS011;31408;45.468;9.124;2022-07-25T13:13:54;12.35;;;4.25;;
45694;SDS011;31408;45.468;9.124;2022-07-25T13:16:19;8.95;;;4.30;;
45694;SDS011;31408;45.468;9.124;2022-07-25T13:18:45;10.18;;;4.38;;
45694;SDS011;31408;45.468;9.124;2022-07-25T13:21:10;8.05;;;4.65;;
45694;SDS011;31408;45.468;9.124;2022-07-25T13:23:36;10.05;;;5.30;;
45694;SDS011;31408;45.468;9.124;2022-07-25T13:26:01;9.07;;;4.55;;
45694;SDS011;31408;45.468;9.124;2022-07-25T13:28:27;7.22;;;5.18;;
45694;SDS011;31408;45.468;9.124;2022-07-25T13:30:53;5.90;;;4.70;;
45694;SDS011;31408;45.468;9.124;2022-07-25T13:33:19;6.63;;;4.50;;
45694;SDS011;31408;45.468;9.124;2022-07-25T13:35:45;10.00;;;4.60;;
45694;SDS011;31408;45.468;9.124;2022-07-25T13:38:10;8.65;;;4.95;;
45694;SDS011;31408;45.468;9.124;2022-07-25T13:40:36;14.50;;;5.00;;
45694;SDS011;31408;45.468;9.124;2022-07-25T13:43:06;7.32;;;4.30;;
45694;SDS011;31408;45.468;9.124;2022-07-25T13:45:33;13.35;;;6.10;;
45694;SDS011;31408;45.468;9.124;2022-07-25T13:47:58;11.23;;;5.20;;
45694;SDS011;31408;45.468;9.124;2022-07-25T13:50:24;6.55;;;5.18;;
45694;SDS011;31408;45.468;9.124;2022-07-25T13:52:49;9.63;;;5.38;;
45694;SDS011;31408;45.468;9.124;2022-07-25T13:55:15;17.13;;;5.70;;
45694;SDS011;31408;45.468;9.124;2022-07-25T13:57:40;9.23;;;5.43;;
45694;SDS011;31408;45.468;9.124;2022-07-25T14:00:06;7.32;;;5.25;;
45694;SDS011;31408;45.468;9.124;2022-07-25T14:02:32;10.18;;;4.93;;
45694;SDS011;31408;45.468;9.124;2022-07-25T14:04:58;8.90;;;5.07;;
45694;SDS011;31408;45.468;9.124;2022-07-25T14:07:23;17.08;;;6.53;;
45694;SDS011;31408;45.468;9.124;2022-07-25T14:09:49;10.90;;;5.22;;
45694;SDS011;31408;45.468;9.124;2022-07-25T14:12:14;9.10;;;5.18;;
45694;SDS011;31408;45.468;9.124;2022-07-25T14:14:39;7.28;;;4.38;;
45694;SDS011;31408;45.468;9.124;2022-07-25T14:17:05;25.50;;;6.88;;
45694;SDS011;31408;45.468;9.124;2022-07-25T14:19:30;8.18;;;4.85;;
45694;SDS011;31408;45.468;9.124;2022-07-25T14:21:56;13.15;;;6.63;;
45694;SDS011;31408;45.468;9.124;2022-07-25T14:24:22;16.42;;;6.40;;
45694;SDS011;31408;45.468;9.124;2022-07-25T14:26:47;7.57;;;5.10;;
45694;SDS011;31408;45.468;9.124;2022-07-25T14:29:13;8.15;;;4.57;;
45694;SDS011;31408;45.468;9.124;2022-07-25T14:31:39;11.45;;;5.50;;
45694;SDS011;31408;45.468;9.124;2022-07-25T14:34:04;9.57;;;4.82;;
45694;SDS011;31408;45.468;9.124;2022-07-25T14:36:30;11.48;;;5.88;;
45694;SDS011;31408;45.468;9.124;2022-07-25T14:38:56;11.18;;;5.30;;
45694;SDS011;31408;45.468;9.124;2022-07-25T14:41:22;13.18;;;5.70;;
45694;SDS011;31408;45.468;9.124;2022-07-25T14:43:47;16.70;;;5.85;;
45694;SDS011;31408;45.468;9.124;2022-07-25T14:46:13;8.90;;;5.35;;